sensor_id;sensor_type;location;lat;lon;timestamp;temperature;humidity
20726;DHT22;10524;48.132;8.518;2023-10-13T00:02:11;12.50;99.90
20726;DHT22;10524;48.132;8.518;2023-10-13T00:04:39;12.50;99.90
20726;DHT22;10524;48.132;8.518;2023-10-13T00:07:05;12.50;99.90
20726;DHT22;10524;48.132;8.518;2023-10-13T00:09:35;12.70;99.90
20726;DHT22;10524;48.132;8.518;2023-10-13T00:12:08;12.70;99.90
20726;DHT22;10524;48.132;8.518;2023-10-13T00:14:40;12.60;99.90
20726;DHT22;10524;48.132;8.518;2023-10-13T00:17:07;12.60;99.90
20726;DHT22;10524;48.132;8.518;2023-10-13T00:19:35;12.60;99.90
20726;DHT22;10524;48.132;8.518;2023-10-13T00:22:05;12.70;99.90
20726;DHT22;10524;48.132;8.518;2023-10-13T00:24:35;12.70;99.90
20726;DHT22;10524;48.132;8.518;2023-10-13T00:27:16;12.60;99.90
20726;DHT22;10524;48.132;8.518;2023-10-13T00:30:07;12.60;99.90
20726;DHT22;10524;48.132;8.518;2023-10-13T00:32:46;12.60;99.90
20726;DHT22;10524;48.132;8.518;2023-10-13T00:35:17;12.70;99.90
20726;DHT22;10524;48.132;8.518;2023-10-13T00:38:04;12.70;99.90
20726;DHT22;10524;48.132;8.518;2023-10-13T00:40:41;12.50;99.90
20726;DHT22;10524;48.132;8.518;2023-10-13T00:43:08;12.60;99.90
20726;DHT22;10524;48.132;8.518;2023-10-13T00:45:44;12.70;99.90
20726;DHT22;10524;48.132;8.518;2023-10-13T00:48:14;12.80;99.90
20726;DHT22;10524;48.132;8.518;2023-10-13T00:50:41;12.80;99.90
20726;DHT22;10524;48.132;8.518;2023-10-13T00:53:11;12.90;99.90
20726;DHT22;10524;48.132;8.518;2023-10-13T00:55:38;12.80;99.90
20726;DHT22;10524;48.132;8.518;2023-10-13T00:58:07;12.70;99.90
20726;DHT22;10524;48.132;8.518;2023-10-13T01:00:38;12.60;99.90
20726;DHT22;10524;48.132;8.518;2023-10-13T01:03:13;12.50;99.90
20726;DHT22;10524;48.132;8.518;2023-10-13T01:05:40;12.50;99.90
20726;DHT22;10524;48.132;8.518;2023-10-13T01:08:06;12.40;99.90
20726;DHT22;10524;48.132;8.518;2023-10-13T01:10:37;12.40;99.90
20726;DHT22;10524;48.132;8.518;2023-10-13T01:13:07;12.30;99.90
20726;DHT22;10524;48.132;8.518;2023-10-13T01:15:36;12.20;99.90
20726;DHT22;10524;48.132;8.518;2023-10-13T01:18:09;12.20;99.90
20726;DHT22;10524;48.132;8.518;2023-10-13T01:20:39;12.10;99.90
20726;DHT22;10524;48.132;8.518;2023-10-13T01:23:13;12.10;99.90
20726;DHT22;10524;48.132;8.518;2023-10-13T01:25:45;12.00;99.90
20726;DHT22;10524;48.132;8.518;2023-10-13T01:28:11;12.00;99.90
20726;DHT22;10524;48.132;8.518;2023-10-13T01:30:42;12.00;99.90
20726;DHT22;10524;48.132;8.518;2023-10-13T01:33:09;12.20;99.90
20726;DHT22;10524;48.132;8.518;2023-10-13T01:35:37;12.30;99.90
20726;DHT22;10524;48.132;8.518;2023-10-13T01:38:08;12.40;99.90
20726;DHT22;10524;48.132;8.518;2023-10-13T01:40:35;12.60;99.90
20726;DHT22;10524;48.132;8.518;2023-10-13T01:43:01;12.70;99.90
20726;DHT22;10524;48.132;8.518;2023-10-13T01:45:30;12.50;99.90
20726;DHT22;10524;48.132;8.518;2023-10-13T01:47:56;12.50;99.90
20726;DHT22;10524;48.132;8.518;2023-10-13T01:50:23;12.40;99.90
20726;DHT22;10524;48.132;8.518;2023-10-13T01:52:57;12.30;99.90
20726;DHT22;10524;48.132;8.518;2023-10-13T01:55:41;12.20;99.90
20726;DHT22;10524;48.132;8.518;2023-10-13T01:58:11;12.10;99.90
20726;DHT22;10524;48.132;8.518;2023-10-13T02:00:44;12.00;99.90
20726;DHT22;10524;48.132;8.518;2023-10-13T02:03:12;11.90;99.90
20726;DHT22;10524;48.132;8.518;2023-10-13T02:05:45;11.80;99.90
20726;DHT22;10524;48.132;8.518;2023-10-13T02:08:21;11.80;99.90
20726;DHT22;10524;48.132;8.518;2023-10-13T02:10:51;11.70;99.90
20726;DHT22;10524;48.132;8.518;2023-10-13T02:13:18;11.60;99.90
20726;DHT22;10524;48.132;8.518;2023-10-13T02:15:45;11.50;99.90
20726;DHT22;10524;48.132;8.518;2023-10-13T02:18:15;11.40;99.90
20726;DHT22;10524;48.132;8.518;2023-10-13T02:20:54;11.30;99.90
20726;DHT22;10524;48.132;8.518;2023-10-13T02:23:23;11.20;99.90
20726;DHT22;10524;48.132;8.518;2023-10-13T02:25:50;11.10;99.90
20726;DHT22;10524;48.132;8.518;2023-10-13T02:28:27;11.20;99.90
20726;DHT22;10524;48.132;8.518;2023-10-13T02:30:56;11.20;99.90
20726;DHT22;10524;48.132;8.518;2023-10-13T02:33:23;11.20;99.90
20726;DHT22;10524;48.132;8.518;2023-10-13T02:36:03;11.20;99.90
20726;DHT22;10524;48.132;8.518;2023-10-13T02:38:31;11.30;99.90
20726;DHT22;10524;48.132;8.518;2023-10-13T02:41:12;11.20;99.90
20726;DHT22;10524;48.132;8.518;2023-10-13T02:43:45;11.10;99.90
20726;DHT22;10524;48.132;8.518;2023-10-13T02:46:11;10.90;99.90
20726;DHT22;10524;48.132;8.518;2023-10-13T02:48:37;10.70;99.90
20726;DHT22;10524;48.132;8.518;2023-10-13T02:51:06;10.60;99.90
20726;DHT22;10524;48.132;8.518;2023-10-13T02:53:44;10.60;99.90
20726;DHT22;10524;48.132;8.518;2023-10-13T02:56:18;10.50;99.90
20726;DHT22;10524;48.132;8.518;2023-10-13T02:58:52;10.40;99.90
20726;DHT22;10524;48.132;8.518;2023-10-13T03:01:32;10.60;99.90
20726;DHT22;10524;48.132;8.518;2023-10-13T03:04:03;10.80;99.90
20726;DHT22;10524;48.132;8.518;2023-10-13T03:06:29;11.00;99.90
20726;DHT22;10524;48.132;8.518;2023-10-13T03:09:01;11.10;99.90
20726;DHT22;10524;48.132;8.518;2023-10-13T03:11:40;11.30;99.90
20726;DHT22;10524;48.132;8.518;2023-10-13T03:14:09;11.60;99.90
20726;DHT22;10524;48.132;8.518;2023-10-13T03:16:45;11.60;99.90
20726;DHT22;10524;48.132;8.518;2023-10-13T03:19:11;11.60;99.90
20726;DHT22;10524;48.132;8.518;2023-10-13T03:21:37;11.70;99.90
20726;DHT22;10524;48.132;8.518;2023-10-13T03:24:03;11.70;99.90
20726;DHT22;10524;48.132;8.518;2023-10-13T03:26:33;11.70;99.90
20726;DHT22;10524;48.132;8.518;2023-10-13T03:29:04;11.60;99.90
20726;DHT22;10524;48.132;8.518;2023-10-13T03:31:33;11.40;99.90
20726;DHT22;10524;48.132;8.518;2023-10-13T03:34:06;11.40;99.90
20726;DHT22;10524;48.132;8.518;2023-10-13T03:36:35;11.30;99.90
20726;DHT22;10524;48.132;8.518;2023-10-13T03:39:20;11.30;99.90
20726;DHT22;10524;48.132;8.518;2023-10-13T03:41:52;11.20;99.90
20726;DHT22;10524;48.132;8.518;2023-10-13T03:44:19;11.20;99.90
20726;DHT22;10524;48.132;8.518;2023-10-13T03:46:46;11.20;99.90
20726;DHT22;10524;48.132;8.518;2023-10-13T03:49:16;11.10;99.90
20726;DHT22;10524;48.132;8.518;2023-10-13T03:51:47;11.20;99.90
20726;DHT22;10524;48.132;8.518;2023-10-13T03:54:14;11.10;99.90
20726;DHT22;10524;48.132;8.518;2023-10-13T03:56:43;11.00;99.90
20726;DHT22;10524;48.132;8.518;2023-10-13T03:59:13;11.00;99.90
20726;DHT22;10524;48.132;8.518;2023-10-13T04:01:41;11.00;99.90
20726;DHT22;10524;48.132;8.518;2023-10-13T04:04:24;11.10;99.90
20726;DHT22;10524;48.132;8.518;2023-10-13T04:07:08;11.10;99.90
20726;DHT22;10524;48.132;8.518;2023-10-13T04:09:36;11.30;99.90
20726;DHT22;10524;48.132;8.518;2023-10-13T04:12:03;11.40;99.90
20726;DHT22;10524;48.132;8.518;2023-10-13T04:14:31;11.50;99.90
20726;DHT22;10524;48.132;8.518;2023-10-13T04:17:06;11.50;99.90
20726;DHT22;10524;48.132;8.518;2023-10-13T04:19:43;11.50;99.90
20726;DHT22;10524;48.132;8.518;2023-10-13T04:22:27;11.40;99.90
20726;DHT22;10524;48.132;8.518;2023-10-13T04:25:24;11.30;99.90
20726;DHT22;10524;48.132;8.518;2023-10-13T04:28:12;11.20;99.90
20726;DHT22;10524;48.132;8.518;2023-10-13T04:30:58;11.10;99.90
20726;DHT22;10524;48.132;8.518;2023-10-13T04:33:33;11.10;99.90
20726;DHT22;10524;48.132;8.518;2023-10-13T04:36:16;11.00;99.90
20726;DHT22;10524;48.132;8.518;2023-10-13T04:38:51;10.90;99.90
20726;DHT22;10524;48.132;8.518;2023-10-13T04:41:36;11.00;99.90
20726;DHT22;10524;48.132;8.518;2023-10-13T04:44:12;11.30;99.90
20726;DHT22;10524;48.132;8.518;2023-10-13T04:46:50;11.40;99.90
20726;DHT22;10524;48.132;8.518;2023-10-13T04:49:16;11.50;99.90
20726;DHT22;10524;48.132;8.518;2023-10-13T04:51:59;11.60;99.90
20726;DHT22;10524;48.132;8.518;2023-10-13T04:54:27;11.60;99.90
20726;DHT22;10524;48.132;8.518;2023-10-13T04:57:18;11.70;99.90
20726;DHT22;10524;48.132;8.518;2023-10-13T05:00:04;11.80;99.90
20726;DHT22;10524;48.132;8.518;2023-10-13T05:02:37;11.90;99.90
20726;DHT22;10524;48.132;8.518;2023-10-13T05:05:09;12.00;99.90
20726;DHT22;10524;48.132;8.518;2023-10-13T05:07:45;12.10;99.90
20726;DHT22;10524;48.132;8.518;2023-10-13T05:10:30;12.30;99.90
20726;DHT22;10524;48.132;8.518;2023-10-13T05:13:15;12.30;99.90
20726;DHT22;10524;48.132;8.518;2023-10-13T05:15:59;12.30;99.90
20726;DHT22;10524;48.132;8.518;2023-10-13T05:18:44;12.40;99.90
20726;DHT22;10524;48.132;8.518;2023-10-13T05:21:28;12.20;99.90
20726;DHT22;10524;48.132;8.518;2023-10-13T05:24:13;12.10;99.90
20726;DHT22;10524;48.132;8.518;2023-10-13T05:26:57;11.90;99.90
20726;DHT22;10524;48.132;8.518;2023-10-13T05:29:44;11.80;99.90
20726;DHT22;10524;48.132;8.518;2023-10-13T05:32:29;11.70;99.90
20726;DHT22;10524;48.132;8.518;2023-10-13T05:35:14;11.60;99.90
20726;DHT22;10524;48.132;8.518;2023-10-13T05:37:59;11.50;99.90
20726;DHT22;10524;48.132;8.518;2023-10-13T05:40:54;11.60;99.90
20726;DHT22;10524;48.132;8.518;2023-10-13T05:43:38;11.70;99.90
20726;DHT22;10524;48.132;8.518;2023-10-13T05:46:22;11.70;99.90
20726;DHT22;10524;48.132;8.518;2023-10-13T05:49:08;11.80;99.90
20726;DHT22;10524;48.132;8.518;2023-10-13T05:51:37;11.90;99.90
20726;DHT22;10524;48.132;8.518;2023-10-13T05:54:18;12.10;99.90
20726;DHT22;10524;48.132;8.518;2023-10-13T05:56:48;12.20;99.90
20726;DHT22;10524;48.132;8.518;2023-10-13T05:59:33;12.40;99.90
20726;DHT22;10524;48.132;8.518;2023-10-13T06:02:19;12.50;99.90
20726;DHT22;10524;48.132;8.518;2023-10-13T06:05:08;12.60;99.90
20726;DHT22;10524;48.132;8.518;2023-10-13T06:07:53;12.70;99.90
20726;DHT22;10524;48.132;8.518;2023-10-13T06:10:38;12.70;99.90
20726;DHT22;10524;48.132;8.518;2023-10-13T06:13:23;12.80;99.90
20726;DHT22;10524;48.132;8.518;2023-10-13T06:16:08;12.80;99.90
20726;DHT22;10524;48.132;8.518;2023-10-13T06:18:53;13.10;99.90
20726;DHT22;10524;48.132;8.518;2023-10-13T06:21:38;13.30;99.90
20726;DHT22;10524;48.132;8.518;2023-10-13T06:24:22;13.60;99.90
20726;DHT22;10524;48.132;8.518;2023-10-13T06:27:07;13.90;99.90
20726;DHT22;10524;48.132;8.518;2023-10-13T06:29:51;14.00;99.90
20726;DHT22;10524;48.132;8.518;2023-10-13T06:32:19;14.10;99.90
20726;DHT22;10524;48.132;8.518;2023-10-13T06:34:45;14.20;99.90
20726;DHT22;10524;48.132;8.518;2023-10-13T06:37:11;14.60;99.90
20726;DHT22;10524;48.132;8.518;2023-10-13T06:39:52;14.90;99.90
20726;DHT22;10524;48.132;8.518;2023-10-13T06:42:38;15.00;99.90
20726;DHT22;10524;48.132;8.518;2023-10-13T06:45:09;15.20;99.90
20726;DHT22;10524;48.132;8.518;2023-10-13T06:47:35;16.40;99.90
20726;DHT22;10524;48.132;8.518;2023-10-13T06:50:14;17.40;99.90
20726;DHT22;10524;48.132;8.518;2023-10-13T06:52:48;18.30;99.90
20726;DHT22;10524;48.132;8.518;2023-10-13T06:55:14;18.80;99.90
20726;DHT22;10524;48.132;8.518;2023-10-13T06:57:46;19.50;99.90
20726;DHT22;10524;48.132;8.518;2023-10-13T07:00:13;20.20;99.90
20726;DHT22;10524;48.132;8.518;2023-10-13T07:02:51;20.60;99.90
20726;DHT22;10524;48.132;8.518;2023-10-13T07:05:18;21.50;99.90
20726;DHT22;10524;48.132;8.518;2023-10-13T07:07:45;22.20;99.90
20726;DHT22;10524;48.132;8.518;2023-10-13T07:10:12;22.50;99.90
20726;DHT22;10524;48.132;8.518;2023-10-13T07:12:39;22.00;99.90
20726;DHT22;10524;48.132;8.518;2023-10-13T07:15:12;22.50;99.90
20726;DHT22;10524;48.132;8.518;2023-10-13T07:17:43;22.70;99.90
20726;DHT22;10524;48.132;8.518;2023-10-13T07:20:11;22.90;99.90
20726;DHT22;10524;48.132;8.518;2023-10-13T07:22:53;22.70;99.90
20726;DHT22;10524;48.132;8.518;2023-10-13T07:25:34;23.20;99.90
20726;DHT22;10524;48.132;8.518;2023-10-13T07:28:06;23.00;99.90
20726;DHT22;10524;48.132;8.518;2023-10-13T07:30:35;22.90;99.90
20726;DHT22;10524;48.132;8.518;2023-10-13T07:33:19;22.90;99.90
20726;DHT22;10524;48.132;8.518;2023-10-13T07:36:02;22.80;99.90
20726;DHT22;10524;48.132;8.518;2023-10-13T07:38:47;23.20;99.90
20726;DHT22;10524;48.132;8.518;2023-10-13T07:41:27;23.50;99.90
20726;DHT22;10524;48.132;8.518;2023-10-13T07:43:56;23.70;99.90
20726;DHT22;10524;48.132;8.518;2023-10-13T07:46:23;24.00;99.90
20726;DHT22;10524;48.132;8.518;2023-10-13T07:48:57;24.20;99.90
20726;DHT22;10524;48.132;8.518;2023-10-13T07:51:34;24.10;99.90
20726;DHT22;10524;48.132;8.518;2023-10-13T07:54:12;24.00;99.90
20726;DHT22;10524;48.132;8.518;2023-10-13T07:56:40;24.90;99.90
20726;DHT22;10524;48.132;8.518;2023-10-13T07:59:06;25.40;99.90
20726;DHT22;10524;48.132;8.518;2023-10-13T08:01:34;25.50;99.90
20726;DHT22;10524;48.132;8.518;2023-10-13T08:04:00;25.90;99.90
20726;DHT22;10524;48.132;8.518;2023-10-13T08:06:40;26.70;99.90
20726;DHT22;10524;48.132;8.518;2023-10-13T08:09:07;26.70;99.90
20726;DHT22;10524;48.132;8.518;2023-10-13T08:11:53;26.60;99.90
20726;DHT22;10524;48.132;8.518;2023-10-13T08:14:20;25.10;99.90
20726;DHT22;10524;48.132;8.518;2023-10-13T08:16:49;24.60;99.90
20726;DHT22;10524;48.132;8.518;2023-10-13T08:19:23;24.00;99.90
20726;DHT22;10524;48.132;8.518;2023-10-13T08:22:09;22.90;99.90
20726;DHT22;10524;48.132;8.518;2023-10-13T08:24:46;21.10;99.90
20726;DHT22;10524;48.132;8.518;2023-10-13T08:27:14;20.50;99.90
20726;DHT22;10524;48.132;8.518;2023-10-13T08:29:44;20.60;99.90
20726;DHT22;10524;48.132;8.518;2023-10-13T08:32:23;21.00;99.90
20726;DHT22;10524;48.132;8.518;2023-10-13T08:34:49;22.00;99.90
20726;DHT22;10524;48.132;8.518;2023-10-13T08:37:18;22.90;99.90
20726;DHT22;10524;48.132;8.518;2023-10-13T08:39:50;24.10;99.90
20726;DHT22;10524;48.132;8.518;2023-10-13T08:42:28;24.70;99.90
20726;DHT22;10524;48.132;8.518;2023-10-13T08:45:11;25.30;99.90
20726;DHT22;10524;48.132;8.518;2023-10-13T08:47:50;25.70;99.90
20726;DHT22;10524;48.132;8.518;2023-10-13T08:50:23;25.20;99.90
20726;DHT22;10524;48.132;8.518;2023-10-13T08:53:09;26.10;99.90
20726;DHT22;10524;48.132;8.518;2023-10-13T08:56:05;26.70;99.70
20726;DHT22;10524;48.132;8.518;2023-10-13T08:58:45;28.60;98.50
20726;DHT22;10524;48.132;8.518;2023-10-13T09:01:24;28.20;97.70
20726;DHT22;10524;48.132;8.518;2023-10-13T09:04:15;27.20;98.10
20726;DHT22;10524;48.132;8.518;2023-10-13T09:07:00;28.10;97.90
20726;DHT22;10524;48.132;8.518;2023-10-13T09:09:27;29.10;97.40
20726;DHT22;10524;48.132;8.518;2023-10-13T09:11:55;28.70;97.10
20726;DHT22;10524;48.132;8.518;2023-10-13T09:14:35;28.60;96.60
20726;DHT22;10524;48.132;8.518;2023-10-13T09:17:05;30.50;96.20
20726;DHT22;10524;48.132;8.518;2023-10-13T09:19:52;30.30;95.30
20726;DHT22;10524;48.132;8.518;2023-10-13T09:22:25;29.80;95.80
20726;DHT22;10524;48.132;8.518;2023-10-13T09:24:59;30.10;95.80
20726;DHT22;10524;48.132;8.518;2023-10-13T09:27:31;29.40;96.40
20726;DHT22;10524;48.132;8.518;2023-10-13T09:29:59;28.50;96.30
20726;DHT22;10524;48.132;8.518;2023-10-13T09:32:47;27.40;96.90
20726;DHT22;10524;48.132;8.518;2023-10-13T09:35:20;26.60;97.80
20726;DHT22;10524;48.132;8.518;2023-10-13T09:37:53;26.10;98.50
20726;DHT22;10524;48.132;8.518;2023-10-13T09:40:22;25.80;98.60
20726;DHT22;10524;48.132;8.518;2023-10-13T09:42:53;25.50;98.70
20726;DHT22;10524;48.132;8.518;2023-10-13T09:45:32;24.80;98.90
20726;DHT22;10524;48.132;8.518;2023-10-13T09:48:18;23.90;99.90
20726;DHT22;10524;48.132;8.518;2023-10-13T09:50:53;23.50;99.90
20726;DHT22;10524;48.132;8.518;2023-10-13T09:53:23;24.30;99.90
20726;DHT22;10524;48.132;8.518;2023-10-13T09:56:11;25.70;99.90
20726;DHT22;10524;48.132;8.518;2023-10-13T09:58:48;27.30;99.10
20726;DHT22;10524;48.132;8.518;2023-10-13T10:01:22;28.50;98.00
20726;DHT22;10524;48.132;8.518;2023-10-13T10:04:13;28.70;97.70
20726;DHT22;10524;48.132;8.518;2023-10-13T10:06:56;29.60;97.40
20726;DHT22;10524;48.132;8.518;2023-10-13T10:09:33;30.80;96.80
20726;DHT22;10524;48.132;8.518;2023-10-13T10:17:24;32.60;95.40
20726;DHT22;10524;48.132;8.518;2023-10-13T10:19:55;32.80;94.70
20726;DHT22;10524;48.132;8.518;2023-10-13T10:22:32;33.50;93.70
20726;DHT22;10524;48.132;8.518;2023-10-13T10:25:05;33.70;93.40
20726;DHT22;10524;48.132;8.518;2023-10-13T10:27:57;34.40;92.60
20726;DHT22;10524;48.132;8.518;2023-10-13T10:30:30;33.50;93.10
20726;DHT22;10524;48.132;8.518;2023-10-13T10:32:59;33.80;92.50
20726;DHT22;10524;48.132;8.518;2023-10-13T10:35:27;33.40;92.70
20726;DHT22;10524;48.132;8.518;2023-10-13T10:38:10;33.50;92.60
20726;DHT22;10524;48.132;8.518;2023-10-13T10:46:15;32.20;92.80
20726;DHT22;10524;48.132;8.518;2023-10-13T10:48:45;32.50;92.60
20726;DHT22;10524;48.132;8.518;2023-10-13T10:51:14;32.20;92.70
20726;DHT22;10524;48.132;8.518;2023-10-13T10:53:41;32.00;92.90
20726;DHT22;10524;48.132;8.518;2023-10-13T10:56:11;32.30;92.80
20726;DHT22;10524;48.132;8.518;2023-10-13T10:58:55;32.40;92.00
20726;DHT22;10524;48.132;8.518;2023-10-13T11:01:22;32.20;92.40
20726;DHT22;10524;48.132;8.518;2023-10-13T11:04:00;33.00;92.50
20726;DHT22;10524;48.132;8.518;2023-10-13T11:06:36;34.90;91.80
20726;DHT22;10524;48.132;8.518;2023-10-13T11:09:08;36.30;91.10
20726;DHT22;10524;48.132;8.518;2023-10-13T11:11:57;37.40;90.10
20726;DHT22;10524;48.132;8.518;2023-10-13T11:14:27;36.50;87.10
20726;DHT22;10524;48.132;8.518;2023-10-13T11:16:55;36.10;84.70
20726;DHT22;10524;48.132;8.518;2023-10-13T11:19:38;37.20;83.40
20726;DHT22;10524;48.132;8.518;2023-10-13T11:22:18;37.00;81.40
20726;DHT22;10524;48.132;8.518;2023-10-13T11:25:03;36.60;81.50
20726;DHT22;10524;48.132;8.518;2023-10-13T11:27:42;36.00;81.80
20726;DHT22;10524;48.132;8.518;2023-10-13T11:30:18;37.00;81.20
20726;DHT22;10524;48.132;8.518;2023-10-13T11:33:11;37.90;80.80
20726;DHT22;10524;48.132;8.518;2023-10-13T11:35:40;36.70;79.70
20726;DHT22;10524;48.132;8.518;2023-10-13T11:40:53;37.60;79.80
20726;DHT22;10524;48.132;8.518;2023-10-13T11:43:40;37.10;79.90
20726;DHT22;10524;48.132;8.518;2023-10-13T11:46:12;37.50;79.20
20726;DHT22;10524;48.132;8.518;2023-10-13T11:48:41;37.30;78.90
20726;DHT22;10524;48.132;8.518;2023-10-13T11:51:14;36.70;78.30
20726;DHT22;10524;48.132;8.518;2023-10-13T11:53:45;37.70;78.70
20726;DHT22;10524;48.132;8.518;2023-10-13T11:56:13;38.10;78.00
20726;DHT22;10524;48.132;8.518;2023-10-13T11:58:40;38.00;77.30
20726;DHT22;10524;48.132;8.518;2023-10-13T12:01:06;37.30;78.10
20726;DHT22;10524;48.132;8.518;2023-10-13T12:03:41;37.10;77.50
20726;DHT22;10524;48.132;8.518;2023-10-13T12:06:27;36.90;78.20
20726;DHT22;10524;48.132;8.518;2023-10-13T12:09:05;35.60;78.20
20726;DHT22;10524;48.132;8.518;2023-10-13T12:12:03;36.20;78.50
20726;DHT22;10524;48.132;8.518;2023-10-13T12:14:30;35.70;77.90
20726;DHT22;10524;48.132;8.518;2023-10-13T12:17:28;36.40;78.40
20726;DHT22;10524;48.132;8.518;2023-10-13T12:19:57;37.00;76.80
20726;DHT22;10524;48.132;8.518;2023-10-13T12:22:24;37.20;76.80
20726;DHT22;10524;48.132;8.518;2023-10-13T12:24:57;37.20;76.30
20726;DHT22;10524;48.132;8.518;2023-10-13T12:27:23;36.50;76.80
20726;DHT22;10524;48.132;8.518;2023-10-13T12:29:50;36.80;76.80
20726;DHT22;10524;48.132;8.518;2023-10-13T12:32:18;36.90;77.10
20726;DHT22;10524;48.132;8.518;2023-10-13T12:34:51;38.00;76.60
20726;DHT22;10524;48.132;8.518;2023-10-13T12:37:24;37.70;75.50
20726;DHT22;10524;48.132;8.518;2023-10-13T12:40:06;37.30;75.20
20726;DHT22;10524;48.132;8.518;2023-10-13T12:42:51;35.60;75.70
20726;DHT22;10524;48.132;8.518;2023-10-13T12:45:43;31.70;77.10
20726;DHT22;10524;48.132;8.518;2023-10-13T12:48:27;29.10;80.10
20726;DHT22;10524;48.132;8.518;2023-10-13T12:51:12;27.80;82.70
20726;DHT22;10524;48.132;8.518;2023-10-13T12:54:06;27.10;83.90
20726;DHT22;10524;48.132;8.518;2023-10-13T12:56:40;26.70;84.00
20726;DHT22;10524;48.132;8.518;2023-10-13T12:59:09;26.50;83.80
20726;DHT22;10524;48.132;8.518;2023-10-13T13:01:40;26.40;85.10
20726;DHT22;10524;48.132;8.518;2023-10-13T13:04:12;26.20;90.80
20726;DHT22;10524;48.132;8.518;2023-10-13T13:06:44;26.20;91.70
20726;DHT22;10524;48.132;8.518;2023-10-13T13:09:09;26.10;86.60
20726;DHT22;10524;48.132;8.518;2023-10-13T13:11:36;26.20;90.50
20726;DHT22;10524;48.132;8.518;2023-10-13T13:14:08;26.00;92.10
20726;DHT22;10524;48.132;8.518;2023-10-13T13:16:35;25.80;91.90
20726;DHT22;10524;48.132;8.518;2023-10-13T13:19:01;25.60;92.10
20726;DHT22;10524;48.132;8.518;2023-10-13T13:21:38;25.50;92.60
20726;DHT22;10524;48.132;8.518;2023-10-13T13:24:04;25.50;92.30
20726;DHT22;10524;48.132;8.518;2023-10-13T13:26:37;25.50;92.60
20726;DHT22;10524;48.132;8.518;2023-10-13T13:29:06;25.40;92.80
20726;DHT22;10524;48.132;8.518;2023-10-13T13:31:35;25.40;92.60
20726;DHT22;10524;48.132;8.518;2023-10-13T13:34:10;25.30;92.30
20726;DHT22;10524;48.132;8.518;2023-10-13T13:36:36;25.30;92.90
20726;DHT22;10524;48.132;8.518;2023-10-13T13:39:02;25.20;92.80
20726;DHT22;10524;48.132;8.518;2023-10-13T13:41:28;25.10;92.60
20726;DHT22;10524;48.132;8.518;2023-10-13T13:43:53;25.10;93.10
20726;DHT22;10524;48.132;8.518;2023-10-13T13:46:23;25.10;93.20
20726;DHT22;10524;48.132;8.518;2023-10-13T13:48:59;25.00;93.60
20726;DHT22;10524;48.132;8.518;2023-10-13T13:51:29;24.90;93.60
20726;DHT22;10524;48.132;8.518;2023-10-13T13:53:57;24.80;93.80
20726;DHT22;10524;48.132;8.518;2023-10-13T13:56:24;24.60;93.60
20726;DHT22;10524;48.132;8.518;2023-10-13T13:58:54;24.60;93.40
20726;DHT22;10524;48.132;8.518;2023-10-13T14:01:28;24.60;93.60
20726;DHT22;10524;48.132;8.518;2023-10-13T14:03:54;24.50;93.90
20726;DHT22;10524;48.132;8.518;2023-10-13T14:06:28;24.40;94.10
20726;DHT22;10524;48.132;8.518;2023-10-13T14:08:56;24.50;94.30
20726;DHT22;10524;48.132;8.518;2023-10-13T14:11:30;24.50;94.20
20726;DHT22;10524;48.132;8.518;2023-10-13T14:14:10;24.40;94.30
20726;DHT22;10524;48.132;8.518;2023-10-13T14:16:46;24.40;94.20
20726;DHT22;10524;48.132;8.518;2023-10-13T14:19:16;24.40;94.50
20726;DHT22;10524;48.132;8.518;2023-10-13T14:21:56;24.30;94.40
20726;DHT22;10524;48.132;8.518;2023-10-13T14:24:22;24.20;94.30
20726;DHT22;10524;48.132;8.518;2023-10-13T14:26:55;24.10;94.80
20726;DHT22;10524;48.132;8.518;2023-10-13T14:29:22;24.10;94.90
20726;DHT22;10524;48.132;8.518;2023-10-13T14:31:52;24.00;94.70
20726;DHT22;10524;48.132;8.518;2023-10-13T14:34:18;24.00;95.10
20726;DHT22;10524;48.132;8.518;2023-10-13T14:36:47;23.90;95.00
20726;DHT22;10524;48.132;8.518;2023-10-13T14:39:14;23.80;95.10
20726;DHT22;10524;48.132;8.518;2023-10-13T14:41:40;23.70;95.20
20726;DHT22;10524;48.132;8.518;2023-10-13T14:44:07;23.70;95.40
20726;DHT22;10524;48.132;8.518;2023-10-13T14:46:35;23.70;95.60
20726;DHT22;10524;48.132;8.518;2023-10-13T14:49:05;23.70;95.50
20726;DHT22;10524;48.132;8.518;2023-10-13T14:51:31;23.60;95.80
20726;DHT22;10524;48.132;8.518;2023-10-13T14:53:58;23.60;95.80
20726;DHT22;10524;48.132;8.518;2023-10-13T14:56:29;23.60;96.00
20726;DHT22;10524;48.132;8.518;2023-10-13T14:58:54;23.50;95.90
20726;DHT22;10524;48.132;8.518;2023-10-13T15:01:22;23.50;96.10
20726;DHT22;10524;48.132;8.518;2023-10-13T15:03:49;23.40;96.10
20726;DHT22;10524;48.132;8.518;2023-10-13T15:06:25;23.40;96.10
20726;DHT22;10524;48.132;8.518;2023-10-13T15:08:52;23.30;96.30
20726;DHT22;10524;48.132;8.518;2023-10-13T15:11:22;23.30;96.10
20726;DHT22;10524;48.132;8.518;2023-10-13T15:13:55;23.30;96.00
20726;DHT22;10524;48.132;8.518;2023-10-13T15:16:25;23.20;96.20
20726;DHT22;10524;48.132;8.518;2023-10-13T15:18:52;23.20;96.10
20726;DHT22;10524;48.132;8.518;2023-10-13T15:21:22;23.20;96.00
20726;DHT22;10524;48.132;8.518;2023-10-13T15:23:49;23.10;96.00
20726;DHT22;10524;48.132;8.518;2023-10-13T15:26:20;23.10;96.20
20726;DHT22;10524;48.132;8.518;2023-10-13T15:28:49;22.90;96.30
20726;DHT22;10524;48.132;8.518;2023-10-13T15:31:18;22.90;96.40
20726;DHT22;10524;48.132;8.518;2023-10-13T15:34:04;22.90;96.40
20726;DHT22;10524;48.132;8.518;2023-10-13T15:36:42;22.70;96.50
20726;DHT22;10524;48.132;8.518;2023-10-13T15:39:09;22.70;96.40
20726;DHT22;10524;48.132;8.518;2023-10-13T15:41:41;22.70;96.60
20726;DHT22;10524;48.132;8.518;2023-10-13T15:44:13;22.60;96.70
20726;DHT22;10524;48.132;8.518;2023-10-13T15:46:39;22.50;96.60
20726;DHT22;10524;48.132;8.518;2023-10-13T15:49:05;22.40;96.60
20726;DHT22;10524;48.132;8.518;2023-10-13T15:51:35;22.40;96.70
20726;DHT22;10524;48.132;8.518;2023-10-13T15:54:03;22.30;96.90
20726;DHT22;10524;48.132;8.518;2023-10-13T15:56:30;22.20;96.90
20726;DHT22;10524;48.132;8.518;2023-10-13T15:59:01;22.10;97.00
20726;DHT22;10524;48.132;8.518;2023-10-13T16:01:28;22.00;97.00
20726;DHT22;10524;48.132;8.518;2023-10-13T16:03:54;21.90;97.60
20726;DHT22;10524;48.132;8.518;2023-10-13T16:06:20;21.80;97.50
20726;DHT22;10524;48.132;8.518;2023-10-13T16:08:51;21.60;97.40
20726;DHT22;10524;48.132;8.518;2023-10-13T16:11:18;21.60;97.20
20726;DHT22;10524;48.132;8.518;2023-10-13T16:13:45;21.50;97.50
20726;DHT22;10524;48.132;8.518;2023-10-13T16:16:23;21.30;97.70
20726;DHT22;10524;48.132;8.518;2023-10-13T16:18:51;21.20;97.60
20726;DHT22;10524;48.132;8.518;2023-10-13T16:21:20;21.10;97.30
20726;DHT22;10524;48.132;8.518;2023-10-13T16:23:47;21.10;96.90
20726;DHT22;10524;48.132;8.518;2023-10-13T16:26:17;21.10;97.00